Time;durP1;ratioP1;P1;durP2;ratioP2;P2;SDS_P1;SDS_P2;PMS_P1;PMS_P2;Temp;Humidity;BMP_temperature;BMP_pressure;BME280_temperature;BME280_humidity;BME280_pressure;Samples;Min_cycle;Max_cycle;Signal;HPM_P1;HPM_P2
2022/12/12 00:01:57;;;;;;;13.70;7.37;;;;;;;3.94;100.00;98867.58;124096;1098;104331;-80
2022/12/12 00:04:28;;;;;;;10.50;5.43;;;;;;;3.88;100.00;98872.55;124111;1099;104273;-79
2022/12/12 00:06:59;;;;;;;10.03;5.40;;;;;;;3.83;100.00;98877.56;124023;1099;104277;-80
2022/12/12 00:09:30;;;;;;;11.80;5.70;;;;;;;3.80;100.00;98877.45;124100;1099;104303;-80
2022/12/12 00:12:02;;;;;;;13.77;6.63;;;;;;;3.78;100.00;98879.12;124032;1099;104367;-79
2022/12/12 00:14:33;;;;;;;12.90;6.70;;;;;;;3.78;100.00;98881.71;123865;1099;104312;-80
2022/12/12 00:17:04;;;;;;;15.00;8.03;;;;;;;3.77;100.00;98880.84;124016;1099;104200;-79
2022/12/12 00:19:35;;;;;;;14.87;7.50;;;;;;;3.76;100.00;98880.78;123919;1099;104268;-80
2022/12/12 00:22:06;;;;;;;15.60;8.30;;;;;;;3.80;100.00;98881.77;123877;1099;104412;-81
2022/12/12 00:24:37;;;;;;;14.47;6.97;;;;;;;3.84;100.00;98886.25;123833;1099;104275;-80
2022/12/12 00:27:09;;;;;;;11.83;6.27;;;;;;;3.81;100.00;98874.05;123962;1099;104274;-81
2022/12/12 00:29:40;;;;;;;13.10;6.73;;;;;;;3.81;100.00;98878.36;123925;1099;104325;-81
2022/12/12 00:32:11;;;;;;;13.57;6.30;;;;;;;3.82;100.00;98882.70;123988;1099;104290;-80
2022/12/12 00:34:42;;;;;;;11.50;5.70;;;;;;;3.80;100.00;98880.05;124176;1099;104367;-81
2022/12/12 00:37:13;;;;;;;12.43;5.93;;;;;;;3.79;100.00;98878.30;124240;1099;104367;-81
2022/12/12 00:39:46;;;;;;;11.50;5.80;;;;;;;3.77;100.00;98880.84;123949;1099;104278;-80
2022/12/12 00:42:18;;;;;;;11.17;6.03;;;;;;;3.76;100.00;98880.78;124098;1099;104271;-81
2022/12/12 00:44:49;;;;;;;10.57;5.23;;;;;;;3.74;100.00;98887.61;123949;1098;104271;-80
2022/12/12 00:47:21;;;;;;;10.70;5.70;;;;;;;3.70;100.00;98896.99;123808;1099;104373;-80
2022/12/12 00:49:52;;;;;;;14.30;6.10;;;;;;;3.70;100.00;98894.40;123835;1099;104317;-80
2022/12/12 00:52:23;;;;;;;11.00;5.90;;;;;;;3.71;100.00;98908.24;123828;1099;104379;-80
2022/12/12 00:54:55;;;;;;;14.57;6.13;;;;;;;3.68;100.00;98905.57;124069;1099;104255;-82
2022/12/12 00:57:26;;;;;;;12.67;6.23;;;;;;;3.68;100.00;98895.19;124045;1099;104248;-80
2022/12/12 00:59:57;;;;;;;13.70;6.70;;;;;;;3.67;100.00;98890.81;123885;1099;104383;-79
2022/12/12 01:02:28;;;;;;;14.53;6.30;;;;;;;3.64;100.00;98894.17;123795;1099;104613;-81
2022/12/12 01:04:59;;;;;;;12.70;6.60;;;;;;;3.66;100.00;98887.35;123917;1099;104274;-80
2022/12/12 01:07:31;;;;;;;16.23;8.00;;;;;;;3.66;100.00;98892.54;123858;1099;104695;-81
2022/12/12 01:10:02;;;;;;;16.50;8.07;;;;;;;3.71;100.00;98910.84;123913;1099;104290;-80
2022/12/12 01:12:33;;;;;;;15.53;7.20;;;;;;;3.69;100.00;98921.16;123798;1099;118816;-80
2022/12/12 01:15:06;;;;;;;14.17;7.37;;;;;;;3.64;100.00;98934.80;124099;1099;104386;-79
2022/12/12 01:17:37;;;;;;;14.43;7.27;;;;;;;3.58;100.00;98940.63;124094;1099;104300;-81
2022/12/12 01:20:17;;;;;;;19.70;9.80;;;;;;;3.55;100.00;98948.29;123995;1099;104328;-79
2022/12/12 01:22:49;;;;;;;18.53;8.93;;;;;;;3.53;100.00;98952.54;124037;1099;104272;-79
2022/12/12 01:25:21;;;;;;;18.07;8.43;;;;;;;3.50;100.00;98967.98;124019;1099;104373;-80
2022/12/12 01:27:52;;;;;;;16.83;8.27;;;;;;;3.41;100.00;98964.21;124055;1099;104358;-80
2022/12/12 01:30:24;;;;;;;16.23;7.30;;;;;;;3.36;100.00;98970.91;123926;1099;104277;-79
2022/12/12 01:32:55;;;;;;;16.33;7.00;;;;;;;3.32;100.00;98963.84;123992;1099;104272;-80
2022/12/12 01:35:27;;;;;;;14.53;7.20;;;;;;;3.26;100.00;98968.78;123806;1099;104271;-80
2022/12/12 01:37:59;;;;;;;14.07;6.73;;;;;;;3.21;100.00;98978.06;123874;1099;104366;-81
2022/12/12 01:40:31;;;;;;;14.00;6.77;;;;;;;3.14;100.00;98976.94;123866;1099;104230;-80
2022/12/12 01:43:02;;;;;;;12.53;6.73;;;;;;;3.11;100.00;98983.72;123944;1099;104270;-80
2022/12/12 01:49:06;;;;;;;13.57;6.50;;;;;;;2.95;100.00;98997.75;123820;1101;104207;-78
2022/12/12 01:51:39;;;;;;;13.30;6.30;;;;;;;2.85;100.00;98991.28;123245;1102;104379;-79
2022/12/12 01:54:14;;;;;;;15.23;6.87;;;;;;;2.78;100.00;98999.62;123347;1102;104238;-79
2022/12/12 01:56:47;;;;;;;13.77;6.10;;;;;;;2.77;100.00;99003.03;123249;1102;104364;-79
2022/12/12 01:59:21;;;;;;;13.05;6.10;;;;;;;2.70;100.00;99002.77;123250;1102;104711;-79
2022/12/12 02:01:52;;;;;;;12.37;6.40;;;;;;;2.64;100.00;99002.50;123406;1102;104274;-79
2022/12/12 02:04:26;;;;;;;13.93;6.87;;;;;;;2.61;100.00;99004.08;123210;1105;104383;-80
2022/12/12 02:06:59;;;;;;;12.40;6.40;;;;;;;2.50;100.00;98993.26;123322;1105;104277;-79
2022/12/12 02:09:31;;;;;;;12.03;6.07;;;;;;;2.43;100.00;98993.80;123247;1105;104388;-79
2022/12/12 02:12:02;;;;;;;13.77;6.27;;;;;;;2.39;100.00;98986.73;123225;1105;104367;-79
2022/12/12 02:14:38;;;;;;;14.15;6.20;;;;;;;2.33;100.00;98988.21;123331;1105;104348;-79
2022/12/12 02:17:38;;;;;;;13.87;6.67;;;;;;;2.30;100.00;98995.84;123270;1105;104657;-80
2022/12/12 02:20:40;;;;;;;14.70;6.57;;;;;;;2.29;100.00;99003.54;123301;1105;104300;-80
2022/12/12 02:23:51;;;;;;;13.10;6.10;;;;;;;2.28;100.00;99018.20;123348;1105;104380;-80
2022/12/12 02:27:16;;;;;;;12.40;5.70;;;;;;;2.24;100.00;99036.98;123203;1106;104453;-79
2022/12/12 02:30:23;;;;;;;12.20;5.95;;;;;;;2.18;100.00;99053.94;123394;1105;104277;-80
2022/12/12 02:33:16;;;;;;;13.03;6.30;;;;;;;2.10;100.00;99056.17;123287;1102;104872;-79
2022/12/12 02:36:00;;;;;;;12.43;6.57;;;;;;;2.05;100.00;99061.14;123371;1102;104258;-79
2022/12/12 02:38:37;;;;;;;14.55;6.15;;;;;;;1.99;100.00;99055.67;123472;1102;104217;-79
2022/12/12 02:41:18;;;;;;;11.87;5.73;;;;;;;1.96;100.00;99047.77;123307;1103;104255;-79
2022/12/12 02:43:59;;;;;;;13.43;6.30;;;;;;;1.90;100.00;99050.08;123329;1105;104246;-79
2022/12/12 02:46:37;;;;;;;16.67;6.30;;;;;;;1.85;100.00;99048.98;123382;1105;104226;-80
2022/12/12 02:49:14;;;;;;;13.07;6.27;;;;;;;1.78;100.00;99053.87;123395;1105;104364;-80
2022/12/12 02:51:46;;;;;;;11.95;5.85;;;;;;;1.77;100.00;99057.25;123506;1105;104316;-79
2022/12/12 02:54:20;;;;;;;11.87;6.03;;;;;;;1.75;100.00;99047.67;123232;1105;104280;-79
2022/12/12 02:56:57;;;;;;;13.17;6.37;;;;;;;1.73;100.00;99049.27;123354;1105;104693;-80
2022/12/12 02:59:32;;;;;;;12.23;6.17;;;;;;;1.74;100.00;99054.52;123215;1105;104738;-79
2022/12/12 03:02:34;;;;;;;14.07;6.00;;;;;;;1.73;100.00;99052.77;123358;1105;104402;-80
2022/12/12 03:08:35;;;;;;;13.10;6.17;;;;;;;1.72;100.00;99048.40;123246;1105;104223;-79
2022/12/12 03:11:09;;;;;;;11.70;5.70;;;;;;;1.70;100.00;99062.06;123343;1105;104259;-79
2022/12/12 03:13:47;;;;;;;10.73;5.37;;;;;;;1.65;100.00;99058.38;123311;1105;104274;-80
2022/12/12 03:16:27;;;;;;;12.07;5.60;;;;;;;1.64;100.00;99041.98;123387;1105;104255;-79
2022/12/12 03:19:07;;;;;;;12.27;5.73;;;;;;;1.65;100.00;99050.63;123317;1105;104310;-80
2022/12/12 03:21:46;;;;;;;12.00;5.70;;;;;;;1.69;100.00;99062.89;123296;1104;107950;-80
2022/12/12 03:24:25;;;;;;;10.70;5.57;;;;;;;1.73;100.00;99068.29;123258;1105;104191;-79
2022/12/12 03:27:00;;;;;;;11.77;5.47;;;;;;;1.72;100.00;99076.84;123339;1105;104408;-80
2022/12/12 03:29:34;;;;;;;10.03;5.40;;;;;;;1.65;100.00;99073.89;123286;1105;104743;-80
2022/12/12 03:32:10;;;;;;;12.43;5.63;;;;;;;1.61;100.00;99067.70;123258;1105;117967;-80
2022/12/12 03:34:47;;;;;;;12.17;6.10;;;;;;;1.63;100.00;99075.53;123214;1105;104665;-80
2022/12/12 03:37:23;;;;;;;12.80;5.60;;;;;;;1.62;100.00;99095.31;123266;1104;104865;-79
2022/12/12 03:40:00;;;;;;;11.03;5.03;;;;;;;1.57;100.00;99108.05;123119;1105;104367;-79
2022/12/12 03:42:42;;;;;;;9.90;5.03;;;;;;;1.54;100.00;99105.30;123254;1105;104255;-80
2022/12/12 03:45:17;;;;;;;10.40;5.30;;;;;;;1.52;100.00;99113.79;123326;1105;104408;-80
2022/12/12 03:47:56;;;;;;;9.73;5.27;;;;;;;1.49;100.00;99118.80;123350;1105;104381;-81
2022/12/12 03:50:31;;;;;;;9.37;4.70;;;;;;;1.47;100.00;99115.27;123302;1102;104229;-81
2022/12/12 03:53:10;;;;;;;9.60;4.80;;;;;;;1.44;100.00;99119.45;123291;1105;104229;-80
2022/12/12 03:55:48;;;;;;;8.37;4.17;;;;;;;1.47;100.00;99120.44;123411;1102;104302;-80
2022/12/12 03:58:24;;;;;;;9.83;4.80;;;;;;;1.47;100.00;99121.31;123279;1102;104297;-81
2022/12/12 04:00:59;;;;;;;8.63;4.60;;;;;;;1.51;100.00;99112.00;123311;1102;104390;-80
2022/12/12 04:03:39;;;;;;;11.30;5.27;;;;;;;1.53;100.00;99100.94;123304;1105;104382;-81
2022/12/12 04:06:26;;;;;;;8.87;4.40;;;;;;;1.57;100.00;99113.22;123225;1105;104248;-81
2022/12/12 04:15:18;;;;;;;8.40;4.50;;;;;;;1.55;100.00;99132.03;123271;1105;104498;-80
2022/12/12 04:18:01;;;;;;;9.50;4.67;;;;;;;1.54;100.00;99130.25;123199;1103;104245;-80
2022/12/12 04:23:37;;;;;;;7.87;4.30;;;;;;;1.50;100.00;99128.34;123279;1103;104296;-81
2022/12/12 04:29:12;;;;;;;11.77;4.87;;;;;;;1.48;100.00;99119.61;123216;1105;104277;-80
2022/12/12 04:31:50;;;;;;;10.27;4.80;;;;;;;1.48;100.00;99122.19;123319;1105;104345;-80
2022/12/12 04:34:28;;;;;;;7.47;4.27;;;;;;;1.46;100.00;99124.70;123352;1105;104249;-78
2022/12/12 04:37:00;;;;;;;10.93;5.37;;;;;;;1.43;100.00;99125.45;123360;1105;104275;-80
2022/12/12 04:39:33;;;;;;;10.57;5.03;;;;;;;1.44;100.00;99132.37;123417;1103;104248;-81
2022/12/12 04:42:06;;;;;;;10.30;4.97;;;;;;;1.46;100.00;99134.16;123413;1104;104383;-81
2022/12/12 04:44:40;;;;;;;11.33;5.27;;;;;;;1.48;100.00;99124.77;123418;1105;104466;-80
2022/12/12 04:47:13;;;;;;;10.30;5.03;;;;;;;1.51;100.00;99137.85;123355;1105;104281;-80
2022/12/12 04:49:49;;;;;;;9.60;5.00;;;;;;;1.54;100.00;99132.84;123370;1102;104654;-81
2022/12/12 04:52:26;;;;;;;11.43;5.63;;;;;;;1.54;100.00;99140.59;123495;1102;104367;-81
2022/12/12 04:55:01;;;;;;;10.60;5.20;;;;;;;1.54;100.00;99149.26;123514;1102;104320;-80
2022/12/12 04:57:38;;;;;;;12.53;5.73;;;;;;;1.56;100.00;99149.34;123441;1102;104341;-79
2022/12/12 05:00:13;;;;;;;13.03;5.70;;;;;;;1.57;100.00;99144.23;123291;1102;104249;-81
2022/12/12 05:02:51;;;;;;;11.20;5.50;;;;;;;1.55;100.00;99150.13;123325;1102;104278;-80
2022/12/12 05:05:30;;;;;;;13.40;5.87;;;;;;;1.51;100.00;99143.02;123297;1102;104328;-81
2022/12/12 05:08:06;;;;;;;12.77;5.60;;;;;;;1.47;100.00;99148.88;123430;1102;104277;-79
2022/12/12 05:10:44;;;;;;;12.70;5.90;;;;;;;1.44;100.00;99144.43;123410;1102;104184;-81
2022/12/12 05:13:18;;;;;;;12.10;5.83;;;;;;;1.43;100.00;99148.72;123371;1105;104249;-80
2022/12/12 05:15:54;;;;;;;11.87;5.77;;;;;;;1.44;100.00;99145.30;123323;1102;104658;-78
2022/12/12 05:18:26;;;;;;;13.50;6.40;;;;;;;1.44;100.00;99153.06;123367;1102;104245;-77
2022/12/12 05:20:57;;;;;;;14.73;6.33;;;;;;;1.44;100.00;99158.23;123116;1102;104402;-77
2022/12/12 05:23:28;;;;;;;12.53;6.10;;;;;;;1.47;100.00;99160.09;123188;1102;104319;-76
2022/12/12 05:25:59;;;;;;;13.73;6.37;;;;;;;1.46;100.00;99160.89;123091;1102;104351;-79
2022/12/12 05:28:30;;;;;;;13.27;6.33;;;;;;;1.45;100.00;99169.48;123195;1102;104392;-77
2022/12/12 05:31:01;;;;;;;13.97;6.10;;;;;;;1.44;100.00;99168.57;123192;1102;104402;-77
2022/12/12 05:33:32;;;;;;;13.80;6.37;;;;;;;1.45;100.00;99179.81;123287;1102;104322;-77
2022/12/12 05:36:04;;;;;;;15.23;6.87;;;;;;;1.44;100.00;99181.50;123492;1102;104178;-77
2022/12/12 05:38:35;;;;;;;12.90;6.43;;;;;;;1.46;100.00;99178.98;123415;1102;104254;-77
2022/12/12 05:41:07;;;;;;;13.00;5.83;;;;;;;1.43;100.00;99192.66;123212;1102;104390;-76
2022/12/12 05:43:38;;;;;;;12.97;6.57;;;;;;;1.41;100.00;99204.60;123421;1102;104338;-77
2022/12/12 05:46:09;;;;;;;13.87;5.97;;;;;;;1.40;100.00;99213.19;123535;1102;104165;-76
2022/12/12 05:48:40;;;;;;;12.67;5.70;;;;;;;1.42;100.00;99233.95;123447;1102;104245;-77
2022/12/12 05:51:11;;;;;;;13.10;5.97;;;;;;;1.40;100.00;99227.78;123297;1102;104299;-77
2022/12/12 05:53:42;;;;;;;16.23;5.80;;;;;;;1.43;100.00;99236.61;123461;1102;104699;-76
2022/12/12 05:56:13;;;;;;;11.77;6.10;;;;;;;1.45;100.00;99236.69;123305;1102;104336;-76
2022/12/12 05:58:45;;;;;;;13.23;6.20;;;;;;;1.45;100.00;99236.69;123470;1101;104245;-78
2022/12/12 06:01:16;;;;;;;12.10;5.90;;;;;;;1.44;100.00;99243.53;123636;1102;104265;-77
2022/12/12 06:03:47;;;;;;;13.23;6.20;;;;;;;1.45;100.00;99247.03;123725;1102;104194;-77
2022/12/12 06:06:18;;;;;;;14.23;6.23;;;;;;;1.46;100.00;99253.95;123660;1102;104243;-78
2022/12/12 06:08:50;;;;;;;12.80;6.33;;;;;;;1.47;100.00;99260.91;123683;1102;104348;-78
2022/12/12 06:11:21;;;;;;;12.80;6.20;;;;;;;1.47;100.00;99244.52;123860;1102;104775;-78
2022/12/12 06:13:54;;;;;;;14.27;6.03;;;;;;;1.47;100.00;99258.33;123955;1102;104252;-77
2022/12/12 06:16:25;;;;;;;13.23;6.47;;;;;;;1.51;100.00;99269.70;123838;1102;104195;-76
2022/12/12 06:18:57;;;;;;;14.70;6.77;;;;;;;1.59;100.00;99270.98;123961;1102;104245;-77
2022/12/12 06:21:28;;;;;;;13.97;6.50;;;;;;;1.63;100.00;99270.34;123722;1102;104249;-77
2022/12/12 06:24:00;;;;;;;16.63;6.50;;;;;;;1.63;100.00;99282.39;123726;1101;104284;-77
2022/12/12 06:26:31;;;;;;;14.20;7.20;;;;;;;1.61;100.00;99298.70;124237;1102;104280;-77
2022/12/12 06:29:03;;;;;;;13.47;6.53;;;;;;;1.61;100.00;99315.93;124153;1102;104271;-78
2022/12/12 06:31:34;;;;;;;15.83;6.60;;;;;;;1.58;100.00;99306.30;124148;1102;103711;-79
2022/12/12 06:34:07;;;;;;;13.80;6.90;;;;;;;1.58;100.00;99302.84;124056;1102;104270;-78
2022/12/12 06:36:38;;;;;;;14.70;6.80;;;;;;;1.60;100.00;99301.21;124323;1102;102979;-77
2022/12/12 06:39:09;;;;;;;17.70;7.15;;;;;;;1.63;100.00;99306.55;124481;1102;104278;-77
2022/12/12 06:41:41;;;;;;;17.30;7.80;;;;;;;1.62;100.00;99302.17;124423;1102;104229;-78
2022/12/12 06:44:15;;;;;;;18.53;8.60;;;;;;;1.65;100.00;99302.33;124537;1102;102699;-78
2022/12/12 06:46:47;;;;;;;18.60;8.80;;;;;;;1.67;100.00;99299.82;124588;1101;104185;-80
2022/12/12 06:49:21;;;;;;;17.33;8.03;;;;;;;1.66;100.00;99309.29;124642;1101;104118;-79
2022/12/12 06:51:52;;;;;;;18.77;8.30;;;;;;;1.64;100.00;99321.27;124709;1102;101994;-79
2022/12/12 06:54:25;;;;;;;18.70;8.80;;;;;;;1.67;100.00;99331.77;124500;1102;102099;-76
2022/12/12 06:57:00;;;;;;;20.07;8.90;;;;;;;1.65;100.00;99335.95;124538;1102;102260;-78
2022/12/12 06:59:37;;;;;;;22.90;8.70;;;;;;;1.63;100.00;99350.50;124604;1102;102860;-79
2022/12/12 07:02:09;;;;;;;20.00;8.63;;;;;;;1.63;100.00;99353.09;124515;1102;104232;-79
2022/12/12 07:04:41;;;;;;;19.30;9.00;;;;;;;1.66;100.00;99360.13;124513;1102;104152;-79
2022/12/12 07:07:15;;;;;;;21.77;9.03;;;;;;;1.65;100.00;99350.59;124588;1102;103758;-79
2022/12/12 07:09:47;;;;;;;20.00;9.13;;;;;;;1.69;100.00;99360.30;124706;1102;103558;-80
2022/12/12 07:12:26;;;;;;;22.23;9.00;;;;;;;1.73;100.00;99372.56;124715;1102;103152;-79
2022/12/12 07:14:57;;;;;;;21.90;10.10;;;;;;;1.75;100.00;99364.08;124804;1100;104209;-80
2022/12/12 07:17:29;;;;;;;20.93;9.13;;;;;;;1.80;100.00;99369.50;124715;1102;102873;-81
2022/12/12 07:20:02;;;;;;;22.67;10.47;;;;;;;1.84;100.00;99367.95;124545;1102;104333;-80
2022/12/12 07:22:35;;;;;;;24.03;10.97;;;;;;;1.93;100.00;99368.42;124625;1101;103172;-80
2022/12/12 07:25:08;;;;;;;25.60;10.50;;;;;;;2.05;100.00;99370.77;124642;1102;104172;-79
2022/12/12 07:27:40;;;;;;;23.87;11.50;;;;;;;2.09;100.00;99371.01;124788;1102;104079;-80
2022/12/12 07:30:17;;;;;;;21.67;10.10;;;;;;;2.14;100.00;99373.83;124632;1102;104121;-79
2022/12/12 07:32:49;;;;;;;20.07;9.23;;;;;;;2.09;100.00;99376.19;124528;1102;104159;-80
2022/12/12 07:35:21;;;;;;;22.07;10.30;;;;;;;2.10;100.00;99385.73;124606;1102;104271;-79
2022/12/12 07:37:56;;;;;;;21.70;10.50;;;;;;;2.16;100.00;99386.02;124872;1100;104380;-81
2022/12/12 07:40:31;;;;;;;21.97;10.23;;;;;;;2.22;100.00;99395.81;124510;1102;104258;-81
2022/12/12 07:43:03;;;;;;;24.90;12.57;;;;;;;2.23;100.00;99392.42;124763;1102;104184;-81
2022/12/12 07:45:35;;;;;;;25.43;11.83;;;;;;;2.25;100.00;99397.67;124706;1102;104241;-82
2022/12/12 07:48:08;;;;;;;24.87;11.60;;;;;;;2.25;100.00;99401.14;124693;1102;104169;-82
2022/12/12 07:50:41;;;;;;;23.85;11.38;;;;;;;2.22;100.00;99403.58;124806;1102;104150;-81
2022/12/12 07:53:12;;;;;;;22.30;10.93;;;;;;;2.18;100.00;99405.92;124913;1102;102984;-79
2022/12/12 07:55:45;;;;;;;22.95;10.15;;;;;;;2.14;100.00;99412.66;124955;1102;104274;-82
2022/12/12 07:58:18;;;;;;;21.77;10.90;;;;;;;2.16;100.00;99409.31;126452;1100;102669;-80
2022/12/12 08:00:52;;;;;;;24.17;11.07;;;;;;;2.20;100.00;99423.33;126259;1101;102981;-80
2022/12/12 08:03:44;;;;;;;22.87;10.20;;;;;;;2.22;100.00;99428.58;126271;1101;102970;-79
2022/12/12 08:06:22;;;;;;;22.03;10.63;;;;;;;2.23;100.00;99430.34;124728;1102;104367;-80
2022/12/12 08:08:55;;;;;;;21.73;10.90;;;;;;;2.23;100.00;99430.34;125118;1102;102390;-80
2022/12/12 08:11:29;;;;;;;22.30;11.07;;;;;;;2.25;100.00;99431.33;124873;1100;104219;-80
2022/12/12 08:14:11;;;;;;;21.65;10.53;;;;;;;2.26;100.00;99441.77;124815;1102;102171;-79
2022/12/12 08:16:56;;;;;;;20.90;10.30;;;;;;;2.26;100.00;99446.03;125056;1102;103190;-80
2022/12/12 08:19:29;;;;;;;20.97;9.83;;;;;;;2.30;100.00;99438.50;124996;1102;102787;-80
2022/12/12 08:22:01;;;;;;;22.70;10.90;;;;;;;2.35;100.00;99441.33;124775;1102;104284;-81
2022/12/12 08:24:33;;;;;;;20.50;9.87;;;;;;;2.37;100.00;99439.73;125023;1102;102530;-82
2022/12/12 08:27:08;;;;;;;21.13;10.10;;;;;;;2.30;100.00;99441.09;124844;1103;104178;-80
2022/12/12 08:29:42;;;;;;;21.70;10.37;;;;;;;2.29;100.00;99441.92;125198;1102;103948;-79
2022/12/12 08:32:15;;;;;;;23.20;11.40;;;;;;;2.29;100.00;99446.19;125011;1101;102897;-79
2022/12/12 08:34:49;;;;;;;23.83;11.70;;;;;;;2.25;100.00;99441.68;125018;1102;104245;-79
2022/12/12 08:37:24;;;;;;;25.70;12.50;;;;;;;2.24;100.00;99451.13;125029;1101;104257;-77
2022/12/12 08:39:56;;;;;;;23.93;11.97;;;;;;;2.15;100.00;99456.73;124898;1102;104230;-78
2022/12/12 08:42:29;;;;;;;24.87;11.90;;;;;;;2.13;100.00;99454.86;124773;1101;104223;-77
2022/12/12 08:45:00;;;;;;;22.05;10.55;;;;;;;2.08;100.00;99464.09;124796;1102;103086;-79
2022/12/12 08:47:33;;;;;;;23.67;10.77;;;;;;;2.11;100.00;99462.55;124816;1102;104265;-79
2022/12/12 08:50:08;;;;;;;22.43;11.20;;;;;;;2.07;100.00;99460.63;124867;1102;102017;-79
2022/12/12 08:52:40;;;;;;;23.37;11.80;;;;;;;2.11;100.00;99467.72;125028;1102;102918;-81
2022/12/12 08:55:15;;;;;;;23.75;11.45;;;;;;;2.20;100.00;99469.00;125048;1101;104242;-80
2022/12/12 08:57:47;;;;;;;23.97;11.87;;;;;;;2.26;100.00;99465.06;124753;1102;104374;-79
2022/12/12 09:00:20;;;;;;;23.23;11.67;;;;;;;2.33;100.00;99463.67;124845;1101;104278;-79
2022/12/12 09:02:53;;;;;;;26.20;11.37;;;;;;;2.33;100.00;99468.84;124596;1102;104249;-79
2022/12/12 09:05:35;;;;;;;23.83;11.67;;;;;;;2.32;100.00;99473.15;124679;1101;104176;-79
2022/12/12 09:08:07;;;;;;;;;;;;;;;2.34;100.00;99470.64;126214;1102;103032;-80
2022/12/12 09:10:38;;;;;;;22.83;11.83;;;;;;;2.35;100.00;99469.80;126597;1100;102305;-80
2022/12/12 09:13:11;;;;;;;26.67;12.67;;;;;;;2.39;100.00;99470.88;124803;1102;102230;-81
2022/12/12 09:15:43;;;;;;;26.37;12.93;;;;;;;2.46;100.00;99480.72;124673;1102;104252;-78
2022/12/12 09:18:30;;;;;;;26.53;12.63;;;;;;;2.55;100.00;99472.55;124617;1102;104739;-80
2022/12/12 09:21:02;;;;;;;28.10;13.23;;;;;;;2.65;100.00;99464.41;124817;1102;104168;-79
2022/12/12 09:23:39;;;;;;;29.77;14.20;;;;;;;2.77;100.00;99465.03;124839;1102;104188;-81
2022/12/12 09:26:11;;;;;;;48.80;16.75;;;;;;;2.87;100.00;99464.69;124762;1102;104303;-81
2022/12/12 09:28:43;;;;;;;28.37;13.70;;;;;;;3.00;100.00;99473.07;124814;1102;103446;-80
2022/12/12 09:31:14;;;;;;;50.53;16.53;;;;;;;3.01;100.00;99474.86;124680;1102;104178;-81
2022/12/12 09:33:49;;;;;;;28.73;14.20;;;;;;;2.96;100.00;99484.09;124710;1102;103202;-81
2022/12/12 09:36:24;;;;;;;27.93;13.77;;;;;;;2.90;100.00;99496.73;124677;1102;102382;-80
2022/12/12 09:38:57;;;;;;;30.23;15.17;;;;;;;2.83;100.00;99491.25;124730;1102;104383;-81
2022/12/12 09:41:29;;;;;;;27.53;14.43;;;;;;;2.87;100.00;99490.59;124539;1102;104190;-81
2022/12/12 09:44:06;;;;;;;29.83;14.53;;;;;;;2.87;100.00;99489.72;124852;1102;104243;-81
2022/12/12 09:46:44;;;;;;;38.37;14.90;;;;;;;2.88;100.00;99484.61;124541;1102;102232;-79
2022/12/12 09:49:22;;;;;;;39.70;15.20;;;;;;;2.96;100.00;99495.36;124606;1102;104255;-80
2022/12/12 09:51:56;;;;;;;37.53;16.00;;;;;;;3.04;100.00;99490.56;124553;1102;104310;-79
2022/12/12 09:54:29;;;;;;;26.77;12.97;;;;;;;3.16;100.00;99495.44;124911;1102;104310;-82
2022/12/12 09:57:23;;;;;;;29.50;13.67;;;;;;;3.15;100.00;99499.75;125000;1102;104274;-84
2022/12/12 10:00:03;;;;;;;29.87;14.27;;;;;;;3.06;100.00;99497.58;126137;1101;119956;-81
2022/12/12 10:02:56;;;;;;;28.30;14.13;;;;;;;3.06;100.00;99500.17;126272;1101;101999;-80
2022/12/12 10:05:42;;;;;;;28.47;13.73;;;;;;;3.09;100.00;99498.56;126071;1102;102596;-81
2022/12/12 10:08:20;;;;;;;31.23;14.90;;;;;;;3.06;100.00;99489.80;126194;1101;102752;-81
2022/12/12 10:10:56;;;;;;;30.60;14.67;;;;;;;3.16;100.00;99496.31;126348;1101;102008;-81
2022/12/12 10:13:31;;;;;;;29.17;13.73;;;;;;;3.15;100.00;99499.75;126830;1101;102593;-79
2022/12/12 10:16:11;;;;;;;29.53;13.87;;;;;;;3.11;100.00;99491.75;126422;1101;103264;-80
2022/12/12 10:24:16;;;;;;;30.47;14.60;;;;;;;3.08;100.00;99489.00;125638;1105;102956;-80
2022/12/12 10:26:47;;;;;;;32.47;15.87;;;;;;;3.12;100.00;99491.81;125744;1105;102869;-79
2022/12/12 10:29:21;;;;;;;;;;;;;;;3.16;100.00;99491.13;125544;1105;102509;-80
2022/12/12 10:32:04;;;;;;;33.77;14.80;;;;;;;3.15;100.00;99502.34;125654;1105;102947;-81
2022/12/12 10:34:52;;;;;;;29.27;14.20;;;;;;;3.14;100.00;99503.14;125866;1105;101868;-80
2022/12/12 10:37:38;;;;;;;28.93;14.20;;;;;;;3.21;100.00;99502.64;125985;1105;102649;-80
2022/12/12 10:40:22;;;;;;;47.50;16.10;;;;;;;3.22;100.00;99486.25;125813;1105;102211;-80
2022/12/12 10:42:56;;;;;;;;;;;;;;;3.33;100.00;99493.67;126081;1103;102751;-80
2022/12/12 10:45:47;;;;;;;40.73;15.70;;;;;;;3.45;100.00;99490.80;125685;1105;102271;-80
2022/12/12 10:48:22;;;;;;;28.83;14.33;;;;;;;3.57;100.00;99489.66;125812;1104;102005;-80
2022/12/12 10:50:54;;;;;;;;;;;;;;;3.64;100.00;99489.95;125732;1105;102751;-80
2022/12/12 10:53:26;;;;;;;37.13;15.87;;;;;;;3.67;100.00;99492.69;124476;1105;104339;-80
2022/12/12 10:56:03;;;;;;;33.80;15.47;;;;;;;3.70;100.00;99485.05;124432;1105;104297;-79
2022/12/12 10:58:39;;;;;;;29.23;13.47;;;;;;;3.64;100.00;99500.33;124501;1105;104223;-80
2022/12/12 11:01:18;;;;;;;28.83;14.57;;;;;;;3.45;100.00;99494.27;124628;1105;109860;-79
2022/12/12 11:03:52;;;;;;;30.37;15.10;;;;;;;3.35;100.00;99503.31;124664;1103;104242;-80
2022/12/12 11:06:32;;;;;;;34.23;16.05;;;;;;;3.38;100.00;99503.47;124700;1105;103648;-80
2022/12/12 11:09:15;;;;;;;30.50;15.47;;;;;;;3.37;100.00;99500.80;124693;1105;103042;-80
2022/12/12 11:12:01;;;;;;;32.25;15.38;;;;;;;3.37;100.00;99504.27;124802;1105;104182;-79
2022/12/12 11:14:36;;;;;;;32.00;14.57;;;;;;;3.40;100.00;99495.76;124712;1105;102516;-81
2022/12/12 11:17:25;;;;;;;31.13;15.37;;;;;;;3.38;100.00;99505.14;124910;1105;102218;-79
2022/12/12 11:20:00;;;;;;;30.87;14.67;;;;;;;3.24;100.00;99504.47;124809;1105;104361;-79
2022/12/12 11:22:33;;;;;;;31.05;14.38;;;;;;;3.09;100.00;99504.63;124861;1105;103722;-78
2022/12/12 11:25:06;;;;;;;33.60;15.15;;;;;;;3.03;100.00;99509.51;124792;1106;102748;-80
2022/12/12 11:27:41;;;;;;;30.53;15.20;;;;;;;3.07;100.00;99503.67;124980;1105;104226;-81
2022/12/12 11:35:45;;;;;;;;;;;;;;;2.95;100.00;99505.66;126088;1092;102189;-78
2022/12/12 11:38:22;;;;;;;30.63;15.27;;;;;;;2.96;100.00;99502.23;125871;1102;102532;-78
2022/12/12 11:41:05;;;;;;;40.83;15.87;;;;;;;3.02;100.00;99510.31;125728;1102;102124;-82
2022/12/12 11:43:38;;;;;;;36.87;15.97;;;;;;;3.08;100.00;99510.61;125514;1102;104191;-80
2022/12/12 11:46:19;;;;;;;33.80;15.03;;;;;;;3.20;100.00;99513.81;125541;1102;103634;-79
2022/12/12 11:49:02;;;;;;;32.30;15.73;;;;;;;3.25;100.00;99516.63;125474;1102;104150;-82
2022/12/12 11:51:42;;;;;;;34.53;16.33;;;;;;;3.20;100.00;99513.81;125342;1105;104197;-80
2022/12/12 11:54:19;;;;;;;32.23;16.37;;;;;;;3.18;100.00;99510.27;124858;1102;104168;-78
2022/12/12 11:57:00;;;;;;;32.90;16.07;;;;;;;3.23;100.00;99510.50;124806;1102;102822;-82
2022/12/12 12:00:01;;;;;;;39.70;16.80;;;;;;;3.31;100.00;99506.56;124740;1105;102867;-83
2022/12/12 12:03:07;;;;;;;34.77;16.33;;;;;;;3.34;100.00;99500.64;124759;1102;106593;-80
2022/12/12 12:05:52;;;;;;;35.07;16.33;;;;;;;3.29;100.00;99507.29;125153;1102;104252;-79
2022/12/12 12:08:47;;;;;;;32.37;16.03;;;;;;;3.28;100.00;99500.34;124944;1102;104217;-80
2022/12/12 12:11:21;;;;;;;;;;;;;;;3.30;100.00;99498.70;125381;1102;102119;-81
2022/12/12 12:14:28;;;;;;;33.73;16.32;;;;;;;3.34;100.00;99491.16;124719;1102;102417;-82
2022/12/12 12:17:08;;;;;;;28.63;13.20;;;;;;;3.47;100.00;99505.59;124740;1102;104360;-86
2022/12/12 12:19:45;;;;;;;34.30;14.83;;;;;;;3.50;100.00;99497.95;124603;1102;102172;-84